Aérodrome :
LOGIN :

S'inscrire | Disclaimer

   EN    FR    IT 

 










Légende :    VFR   VFR Marginal   IFR   IFR Intensif   IFR Très Intensif
Visi : 
Plafond : 
>= 8 km
>= 3000ft
5 à 8 km
1000 à 3000 ft
1500m à 5 km
500 à 1000 ft
800 à 1500m
200 à 500 ft
< 800m
< 200 ft
Symboles :   Orages  Brouillard  Fortes neiges  Fortes précipitations  Vent > 20 kt
SIGMETs :   Divers  Orages  Givrage  Turbulence  Onde Orograph.  Cendres Volcan.







- Altitude de l'aérodrome : 74 ft
- Code IATA : EIN


EHEH - Eindhoven

DERNIER METAR :
  • 231555Z AUTO 08005KT 360V160 9999 NCD 18/09 Q1022 BLU 04006KT CAVOK

METARs EXPIRÉS :
  • 231525Z AUTO VRB03KT 9999 FEW240 18/08 Q1022 BLU 04006KT CAVOK
  • 231503Z AUTO 03004KT 330V130 9999 FEW140 18/08 Q1023 BLU 04006KT CAVOK
  • 231425Z AUTO 05004KT 360V130 9999 NCD 18/09 Q1023 BLU 04006KT 9999 FEW035
  • 231407Z AUTO 36005KT 350V160 9999 FEW150 18/09 Q1023 BLU 04006KT 9999 FEW035
  • 231355Z AUTO VRB03KT 9999 BKN100 18/09 Q1023 BLU 04006KT 9999 SCT030
  • 231325Z AUTO 02003KT 340V140 9999 FEW036 18/09 Q1024 BLU 04006KT 9999 SCT030

TAF TAF EHEH
Valide du 23 à 12h jusqu'au 24 à 18h UTC


231134Z 2312/2418 05005KT 9999 SCT025
BECMG 2323/2402 3000 BR MIFG
PROB40 2403/2407 0500 BCFG SCT001
BECMG 2407/2409 9999 NSW
Pas de NOTAMs connus pour ce terrain.



MET'MAP, la Météo Aéronautique d'un coup d'oeil ! - Copyright ORBIFLY Décembre 2007 - Disclaimer

ORBIFLY MET'MAP TEAM :

Programmation & Développement : Alexandra Zaïnal
Conception & Développement : Baudouin d'Aumeries
Co-Programmation & Développement : Marc-Olivier Méhu
Soutien technique & logistique : Manuel Goepfert

Contact : metmap@orbifly.com




SOURCES & CREDITS :

   NOAA